Time;durP1;ratioP1;P1;durP2;ratioP2;P2;SDS_P1;SDS_P2;PMS_P1;PMS_P2;Temp;Humidity;BMP_temperature;BMP_pressure;BME280_temperature;BME280_humidity;BME280_pressure;Samples;Min_cycle;Max_cycle;Signal;HPM_P1;HPM_P2
2022/10/06 00:00:34;;;;;;;1.33;0.87;;;;;;;17.31;80.22;100581.44;5012964;28;20205;-75
2022/10/06 00:02:59;;;;;;;1.70;1.30;;;;;;;17.33;80.11;100584.66;5012459;28;20180;-74
2022/10/06 00:05:25;;;;;;;0.90;0.90;;;;;;;17.32;80.04;100585.81;5012913;28;20191;-74
2022/10/06 00:07:50;;;;;;;0.90;0.90;;;;;;;17.38;79.67;100589.94;5011116;28;20263;-74
2022/10/06 00:10:16;;;;;;;1.37;1.27;;;;;;;17.42;79.19;100602.69;5011843;28;20173;-74
2022/10/06 00:12:47;;;;;;;0.80;0.80;;;;;;;17.45;78.76;100606.69;5012647;28;20285;-74
2022/10/06 00:15:16;;;;;;;1.30;1.20;;;;;;;17.44;79.15;100602.31;5012312;28;20533;-74
2022/10/06 00:17:41;;;;;;;10.77;2.23;;;;;;;17.43;79.26;100609.81;5011952;28;20188;-74
2022/10/06 00:20:07;;;;;;;3.33;1.03;;;;;;;17.39;79.39;100605.34;5027795;28;20188;-74
2022/10/06 00:22:38;;;;;;;0.57;0.57;;;;;;;17.38;79.67;100614.78;5011573;28;20180;-74
2022/10/06 00:25:04;;;;;;;0.60;0.60;;;;;;;17.31;79.81;100611.81;5012130;28;20177;-75
2022/10/06 00:27:33;;;;;;;0.97;0.83;;;;;;;17.22;80.98;100626.59;5011845;28;20216;-74
2022/10/06 00:29:59;;;;;;;7.50;1.13;;;;;;;17.16;81.43;100619.72;5012094;28;20264;-75
2022/10/06 00:32:24;;;;;;;1.10;0.80;;;;;;;17.10;81.72;100620.31;5011904;28;20291;-74
2022/10/06 00:34:51;;;;;;;1.43;0.87;;;;;;;17.09;81.60;100619.53;5011926;28;20632;-74
2022/10/06 00:37:16;;;;;;;1.87;1.10;;;;;;;17.08;81.67;100628.97;5011764;28;20183;-74
2022/10/06 00:39:42;;;;;;;1.13;1.07;;;;;;;17.05;81.55;100654.47;5011850;28;20180;-75
2022/10/06 00:42:23;;;;;;;0.40;0.40;;;;;;;17.01;81.80;100697.75;5012116;28;20177;-74
2022/10/06 00:44:49;;;;;;;0.10;0.10;;;;;;;15.97;80.89;100696.34;5011875;28;20183;-76
2022/10/06 00:47:14;;;;;;;0.53;0.20;;;;;;;15.06;85.55;100735.88;5011816;28;20176;-75
2022/10/06 00:49:40;;;;;;;0.00;0.00;;;;;;;14.57;88.67;100725.31;5011819;28;20531;-75
2022/10/06 00:52:10;;;;;;;0.20;0.07;;;;;;;14.26;90.42;100749.50;5026798;28;20213;-73
2022/10/06 00:54:36;;;;;;;0.10;0.10;;;;;;;14.08;92.36;100756.19;5011968;28;20184;-75
2022/10/06 00:57:04;;;;;;;3.20;0.10;;;;;;;13.85;94.32;100758.31;5011239;28;20727;-75
2022/10/06 00:59:29;;;;;;;0.00;0.00;;;;;;;13.70;96.27;100778.84;5026765;28;20199;-75
2022/10/06 01:02:00;;;;;;;0.00;0.00;;;;;;;13.49;99.13;100775.16;5011646;28;20177;-76
2022/10/06 01:04:31;;;;;;;0.00;0.00;;;;;;;13.31;100.00;100777.09;5011362;28;20696;-75
2022/10/06 01:06:59;;;;;;;0.00;0.00;;;;;;;13.20;100.00;100773.03;5011373;28;20644;-75
2022/10/06 01:09:25;;;;;;;0.00;0.00;;;;;;;13.15;100.00;100765.72;5010946;28;20183;-74
2022/10/06 01:11:55;;;;;;;1.07;1.03;;;;;;;13.10;100.00;100779.59;5011518;28;20208;-74
2022/10/06 01:14:22;;;;;;;0.00;0.00;;;;;;;13.07;100.00;100783.78;5011355;28;20184;-74
2022/10/06 01:17:18;;;;;;;0.00;0.00;;;;;;;13.00;100.00;100788.91;5011195;28;20208;-75
2022/10/06 01:19:54;;;;;;;0.03;0.03;;;;;;;13.01;100.00;100800.69;4992393;28;20207;-74
2022/10/06 01:22:32;;;;;;;0.00;0.00;;;;;;;12.98;100.00;100793.91;5011225;28;20184;-74
2022/10/06 01:24:57;;;;;;;0.10;0.10;;;;;;;13.01;99.97;100806.19;5011293;28;20207;-75
2022/10/06 01:27:26;;;;;;;0.00;0.00;;;;;;;13.01;99.29;100800.69;5010909;28;20330;-75
2022/10/06 01:29:54;;;;;;;0.30;0.30;;;;;;;13.07;99.64;100827.69;5011163;28;20264;-74
2022/10/06 01:32:21;;;;;;;0.00;0.00;;;;;;;13.06;98.76;100815.09;5010863;28;20200;-75
2022/10/06 01:34:46;;;;;;;0.00;0.00;;;;;;;13.07;97.57;100821.38;5009768;28;20184;-74
2022/10/06 01:37:12;;;;;;;0.67;0.20;;;;;;;13.08;97.41;100814.78;5009335;28;20640;-74
2022/10/06 01:39:37;;;;;;;0.30;0.07;;;;;;;13.10;97.58;100818.81;5011020;28;20169;-75
2022/10/06 01:42:03;;;;;;;0.00;0.00;;;;;;;13.08;97.94;100829.28;5010889;28;20180;-74
2022/10/06 01:44:28;;;;;;;0.13;0.13;;;;;;;13.11;98.10;100836.88;5010939;28;20172;-74
2022/10/06 01:46:53;;;;;;;0.10;0.10;;;;;;;13.13;97.43;100838.50;5025779;28;20169;-75
2022/10/06 01:49:19;;;;;;;0.17;0.00;;;;;;;13.10;97.82;100848.97;5010862;28;20183;-74
2022/10/06 01:51:46;;;;;;;2.60;0.40;;;;;;;13.08;97.10;100840.28;5010827;28;20299;-75
2022/10/06 01:54:11;;;;;;;0.63;0.60;;;;;;;13.05;97.94;100837.38;5009520;28;20254;-74
2022/10/06 01:56:37;;;;;;;1.67;0.50;;;;;;;12.99;98.17;100835.88;5010589;28;20692;-74
2022/10/06 01:59:02;;;;;;;1.37;1.00;;;;;;;12.94;98.39;100842.31;5011097;28;20176;-74
2022/10/06 02:01:28;;;;;;;0.80;0.80;;;;;;;12.95;99.08;100845.88;5010786;28;20512;-74
2022/10/06 02:03:53;;;;;;;1.97;1.50;;;;;;;12.93;98.97;100843.44;5010618;28;20513;-75
2022/10/06 02:06:18;;;;;;;0.57;0.50;;;;;;;12.93;98.50;100851.69;5010539;28;20242;-75
2022/10/06 02:08:44;;;;;;;0.20;0.20;;;;;;;12.94;98.85;100861.53;5010826;28;20172;-75
2022/10/06 02:11:10;;;;;;;0.27;0.27;;;;;;;12.95;98.13;100865.06;5025555;28;20248;-74
2022/10/06 02:13:37;;;;;;;1.00;0.60;;;;;;;12.97;97.02;100852.66;5025748;28;20334;-75
2022/10/06 02:16:05;;;;;;;0.50;0.50;;;;;;;13.00;95.62;100852.00;5010476;28;20715;-74
2022/10/06 02:18:31;;;;;;;2.60;1.10;;;;;;;13.05;94.95;100867.53;5010635;28;20590;-75
2022/10/06 02:20:56;;;;;;;2.00;0.97;;;;;;;13.07;94.38;100866.09;5025800;28;20188;-74
2022/10/06 02:23:21;;;;;;;0.40;0.40;;;;;;;13.07;94.21;100859.78;5010475;28;20177;-75
2022/10/06 02:25:47;;;;;;;0.50;0.50;;;;;;;13.07;94.56;100881.75;5010336;28;20169;-75
2022/10/06 02:28:12;;;;;;;0.90;0.90;;;;;;;13.08;94.74;100875.94;5010454;28;20210;-74
2022/10/06 02:30:38;;;;;;;0.80;0.80;;;;;;;13.09;94.80;100887.72;5025447;28;20212;-74
2022/10/06 02:33:03;;;;;;;3.13;0.40;;;;;;;13.09;94.81;100890.47;5010392;28;20177;-74
2022/10/06 02:35:28;;;;;;;1.20;1.00;;;;;;;13.09;95.03;100895.94;5010693;28;20629;-75
2022/10/06 02:37:54;;;;;;;0.60;0.60;;;;;;;13.10;95.48;100906.59;5010209;28;20181;-75
2022/10/06 02:40:19;;;;;;;0.40;0.40;;;;;;;13.10;95.54;100923.06;5010478;28;20172;-75
2022/10/06 02:42:44;;;;;;;0.20;0.20;;;;;;;13.09;95.83;100920.63;5010312;28;20189;-75
2022/10/06 02:45:10;;;;;;;1.93;0.20;;;;;;;13.06;95.70;100930.31;5012292;28;20230;-75
2022/10/06 02:47:35;;;;;;;0.10;0.10;;;;;;;13.02;96.23;100934.81;5013753;28;20169;-75
2022/10/06 02:50:04;;;;;;;1.70;0.77;;;;;;;12.98;97.36;100930.25;5029113;28;20563;-75
2022/10/06 02:52:34;;;;;;;0.20;0.20;;;;;;;12.97;98.16;100940.41;5013735;28;20200;-75
2022/10/06 02:55:02;;;;;;;0.87;0.60;;;;;;;12.95;99.01;100945.41;5013699;28;20191;-75
2022/10/06 02:57:27;;;;;;;5.00;1.30;;;;;;;12.92;99.63;100948.78;5012183;28;20216;-75
2022/10/06 02:59:52;;;;;;;0.20;0.20;;;;;;;12.90;100.00;100951.03;5013793;28;20625;-75
2022/10/06 03:02:18;;;;;;;0.10;0.10;;;;;;;12.87;99.96;100961.81;5013347;28;20303;-74
2022/10/06 03:04:43;;;;;;;0.10;0.10;;;;;;;12.82;100.00;100963.56;5021076;28;20607;-75
2022/10/06 03:07:09;;;;;;;0.23;0.23;;;;;;;12.82;100.00;100971.78;5013188;28;20185;-75
2022/10/06 03:09:34;;;;;;;0.30;0.30;;;;;;;12.79;100.00;100969.69;5013172;28;20214;-75
2022/10/06 03:12:00;;;;;;;0.57;0.53;;;;;;;12.77;100.00;100973.88;5024923;28;20720;-75
2022/10/06 03:14:25;;;;;;;0.37;0.37;;;;;;;12.73;100.00;100979.19;5033334;28;20168;-75
2022/10/06 03:16:50;;;;;;;0.30;0.30;;;;;;;12.69;100.00;100986.38;5033372;28;20575;-75
2022/10/06 03:19:16;;;;;;;1.20;0.30;;;;;;;12.69;100.00;100986.38;5033182;28;20202;-75
2022/10/06 03:21:42;;;;;;;0.17;0.17;;;;;;;12.64;100.00;100988.47;5015487;28;20662;-75
2022/10/06 03:24:09;;;;;;;6.13;0.63;;;;;;;12.63;100.00;100997.81;5033037;28;20171;-75
2022/10/06 03:26:39;;;;;;;0.27;0.27;;;;;;;12.61;100.00;100995.38;5032956;28;20179;-75
2022/10/06 03:29:05;;;;;;;0.30;0.30;;;;;;;12.57;100.00;100991.63;5033132;28;20174;-75
2022/10/06 03:31:31;;;;;;;0.60;0.37;;;;;;;12.55;100.00;101002.09;5015526;28;20204;-75
2022/10/06 03:33:56;;;;;;;1.57;1.57;;;;;;;12.58;100.00;101003.38;5013230;28;20543;-75
2022/10/06 03:36:24;;;;;;;0.57;0.50;;;;;;;12.54;100.00;100999.66;5012910;28;20265;-75
2022/10/06 03:38:50;;;;;;;1.50;0.87;;;;;;;12.53;100.00;101012.56;5013166;28;20199;-76
2022/10/06 03:41:17;;;;;;;0.50;0.20;;;;;;;12.51;100.00;101018.34;5028246;28;20180;-75
2022/10/06 03:43:44;;;;;;;0.67;0.67;;;;;;;12.48;100.00;101016.22;5013327;28;20198;-75
2022/10/06 03:46:12;;;;;;;0.03;0.03;;;;;;;12.44;100.00;101023.47;5028145;28;20203;-75
2022/10/06 03:48:37;;;;;;;12.30;0.37;;;;;;;12.42;99.84;101020.19;5012978;28;20824;-75
2022/10/06 03:51:06;;;;;;;0.97;0.20;;;;;;;12.42;99.73;101017.44;5011475;28;20212;-75
2022/10/06 03:53:32;;;;;;;0.10;0.10;;;;;;;12.41;99.28;101029.53;5012723;28;20188;-75
2022/10/06 03:56:05;;;;;;;1.80;0.93;;;;;;;12.42;99.85;101031.16;5011494;28;20172;-75
2022/10/06 03:58:33;;;;;;;2.00;0.77;;;;;;;12.41;99.21;101034.22;5012804;28;20177;-75
2022/10/06 04:01:12;;;;;;;3.77;0.53;;;;;;;12.39;99.05;101039.19;5012932;28;20208;-75
2022/10/06 04:03:37;;;;;;;1.37;0.77;;;;;;;12.37;99.08;101047.72;5012677;28;20196;-75
2022/10/06 04:06:05;;;;;;;0.30;0.30;;;;;;;12.41;99.41;101050.66;5012375;28;20180;-75
2022/10/06 04:08:32;;;;;;;0.40;0.40;;;;;;;12.43;98.93;101062.91;5012895;28;20197;-75
2022/10/06 04:11:06;;;;;;;0.70;0.40;;;;;;;12.51;98.43;101053.97;5010772;28;20610;-75
2022/10/06 04:13:32;;;;;;;1.03;0.70;;;;;;;12.55;97.45;101067.88;5012350;28;20303;-75
2022/10/06 04:15:57;;;;;;;1.97;1.20;;;;;;;12.57;97.42;101081.25;5010760;28;20237;-75
2022/10/06 04:18:23;;;;;;;1.27;1.10;;;;;;;12.55;96.88;101086.25;5012039;28;20264;-75
2022/10/06 04:20:48;;;;;;;3.33;0.60;;;;;;;12.59;95.81;101079.03;5012363;28;20231;-75
2022/10/06 04:23:14;;;;;;;1.93;0.87;;;;;;;12.59;95.50;101088.09;5031673;28;20267;-75
2022/10/06 04:25:40;;;;;;;1.00;0.47;;;;;;;12.60;95.35;101094.38;5031730;28;20170;-75
2022/10/06 04:28:05;;;;;;;4.73;0.63;;;;;;;12.62;94.45;101101.16;5032000;28;20172;-75
2022/10/06 04:30:30;;;;;;;1.60;0.47;;;;;;;12.61;94.35;101096.81;5031836;28;20446;-75
2022/10/06 04:32:55;;;;;;;3.07;0.77;;;;;;;12.59;94.34;101106.47;5031687;28;20251;-75
2022/10/06 04:35:22;;;;;;;1.13;1.00;;;;;;;12.54;94.61;101103.81;5031787;28;20184;-75
2022/10/06 04:37:48;;;;;;;0.17;0.17;;;;;;;12.53;95.25;101111.22;5031337;28;20202;-75
2022/10/06 04:40:14;;;;;;;1.80;1.60;;;;;;;12.50;95.42;101109.91;5026533;28;20630;-75
2022/10/06 04:42:39;;;;;;;0.00;0.00;;;;;;;12.47;95.17;101121.50;5011925;28;20214;-75
2022/10/06 04:45:05;;;;;;;1.17;1.03;;;;;;;12.46;95.03;101125.38;5027136;28;20206;-75
2022/10/06 04:47:31;;;;;;;5.10;0.50;;;;;;;12.45;95.56;101131.97;5010406;28;20267;-75
2022/10/06 04:49:56;;;;;;;3.03;1.77;;;;;;;12.43;95.72;101134.19;5011935;28;20686;-75
2022/10/06 04:52:22;;;;;;;0.53;0.53;;;;;;;12.45;96.22;101150.34;5011862;28;20258;-75
2022/10/06 04:54:47;;;;;;;0.43;0.43;;;;;;;12.45;96.30;101145.66;5011720;28;20179;-76
2022/10/06 04:57:13;;;;;;;0.10;0.10;;;;;;;12.46;97.14;101152.78;5011258;28;20169;-76
2022/10/06 05:02:22;;;;;;;0.03;0.03;;;;;;;12.47;97.69;101167.28;5011554;28;20259;-76
2022/10/06 05:04:47;;;;;;;6.33;1.03;;;;;;;12.47;97.70;101162.63;5011322;28;20184;-75
2022/10/06 05:07:12;;;;;;;0.83;0.30;;;;;;;12.51;96.93;101180.06;5010953;28;20199;-76
2022/10/06 05:09:38;;;;;;;24.23;1.50;;;;;;;12.53;96.70;101187.97;5012307;28;20229;-75
2022/10/06 05:12:03;;;;;;;5.67;0.70;;;;;;;12.53;96.48;101196.19;5016671;28;20251;-76
2022/10/06 05:14:28;;;;;;;0.67;0.33;;;;;;;12.51;96.51;101199.25;5011479;28;20230;-76
2022/10/06 05:16:54;;;;;;;0.20;0.20;;;;;;;12.54;96.49;101202.50;5011092;28;20183;-76
2022/10/06 05:19:19;;;;;;;0.57;0.57;;;;;;;12.54;95.84;101216.19;5011118;28;20184;-75
2022/10/06 05:21:44;;;;;;;0.13;0.13;;;;;;;12.55;95.81;101215.88;5011135;28;20176;-75
2022/10/06 05:24:10;;;;;;;6.93;0.70;;;;;;;12.57;95.27;101223.81;5010881;28;20215;-75
2022/10/06 05:26:35;;;;;;;0.30;0.30;;;;;;;12.60;94.78;101236.91;5010993;28;20397;-76
2022/10/06 05:29:01;;;;;;;0.43;0.33;;;;;;;12.58;94.42;101242.69;5011025;28;20172;-75
2022/10/06 05:31:30;;;;;;;0.00;0.00;;;;;;;12.57;94.31;101243.00;5010878;28;20287;-75
2022/10/06 05:33:57;;;;;;;0.30;0.17;;;;;;;12.58;94.17;101252.84;5010676;28;20192;-76
2022/10/06 05:36:28;;;;;;;0.83;0.50;;;;;;;12.58;94.20;101264.63;5010446;28;20176;-76
2022/10/06 05:38:55;;;;;;;0.37;0.37;;;;;;;12.58;94.04;101270.09;5011156;28;20287;-76
2022/10/06 05:41:28;;;;;;;0.00;0.00;;;;;;;12.57;93.90;101275.88;5010768;28;20172;-75
2022/10/06 05:43:53;;;;;;;0.00;0.00;;;;;;;12.59;93.58;101293.69;5010666;28;20187;-76
2022/10/06 05:46:28;;;;;;;0.00;0.00;;;;;;;12.59;93.05;101290.13;5010273;28;20176;-76
2022/10/06 05:48:55;;;;;;;0.70;0.20;;;;;;;12.60;93.12;101295.31;5025656;28;20176;-73
2022/10/06 05:51:22;;;;;;;0.27;0.27;;;;;;;12.60;92.72;101302.72;5010588;28;20212;-74
2022/10/06 05:53:48;;;;;;;0.57;0.40;;;;;;;12.60;91.04;101303.53;5010447;28;20168;-72
2022/10/06 05:56:25;;;;;;;0.73;0.73;;;;;;;12.63;90.46;101315.81;5010266;28;20666;-71
2022/10/06 05:58:52;;;;;;;2.17;0.73;;;;;;;12.64;89.53;101323.72;5009434;28;20267;-75
2022/10/06 06:01:19;;;;;;;0.43;0.43;;;;;;;12.65;89.73;101327.28;5010475;28;20200;-74
2022/10/06 06:03:53;;;;;;;12.73;2.10;;;;;;;12.65;89.25;101336.31;5010540;28;20226;-74
2022/10/06 06:06:26;;;;;;;7.63;1.87;;;;;;;12.69;87.41;101342.00;5010553;28;20529;-75
2022/10/06 06:08:57;;;;;;;9.43;1.80;;;;;;;12.72;87.53;101347.69;5009596;28;20177;-74
2022/10/06 06:11:26;;;;;;;5.63;0.87;;;;;;;12.73;86.98;101353.97;5010795;28;20214;-75
2022/10/06 06:13:59;;;;;;;5.20;0.50;;;;;;;12.74;86.43;101355.63;5010724;28;20172;-76
2022/10/06 06:16:25;;;;;;;2.03;0.50;;;;;;;12.73;86.38;101357.56;5028763;28;20200;-72
2022/10/06 06:18:51;;;;;;;13.57;0.97;;;;;;;12.70;86.48;101360.06;5030262;28;20184;-71
2022/10/06 06:21:17;;;;;;;2.13;2.03;;;;;;;12.65;86.92;101362.91;5034067;28;20796;-71
2022/10/06 06:23:45;;;;;;;0.20;0.20;;;;;;;12.60;86.58;101363.84;5034204;28;20180;-72
2022/10/06 06:26:13;;;;;;;2.17;1.13;;;;;;;12.54;86.85;101367.78;5033744;28;20187;-71
2022/10/06 06:28:40;;;;;;;0.40;0.40;;;;;;;12.50;87.08;101367.56;5034000;28;20636;-71
2022/10/06 06:31:18;;;;;;;0.87;0.50;;;;;;;12.46;87.17;101373.97;5033945;28;20195;-71
2022/10/06 06:33:43;;;;;;;9.23;1.17;;;;;;;12.42;86.40;101370.97;5033981;28;20257;-71
2022/10/06 06:36:20;;;;;;;0.40;0.40;;;;;;;12.44;85.98;101390.72;5016018;28;20216;-71
2022/10/06 06:38:50;;;;;;;3.63;0.73;;;;;;;12.44;86.70;101389.88;5033746;28;20263;-71
2022/10/06 06:41:22;;;;;;;4.90;1.50;;;;;;;12.43;86.34;101394.53;5033878;28;20176;-71
2022/10/06 06:43:48;;;;;;;3.20;0.77;;;;;;;12.45;86.14;101392.34;5033843;28;20183;-71
2022/10/06 06:46:16;;;;;;;3.53;0.93;;;;;;;12.44;85.58;101398.94;5033532;28;20234;-71
2022/10/06 06:48:41;;;;;;;0.60;0.60;;;;;;;12.44;86.14;101400.84;5033706;28;20180;-71
2022/10/06 06:51:10;;;;;;;3.43;1.53;;;;;;;12.46;85.58;101412.34;5015727;28;20230;-71
2022/10/06 06:53:37;;;;;;;14.03;1.40;;;;;;;12.46;85.85;101415.88;5033539;28;20187;-73
2022/10/06 06:56:03;;;;;;;1.53;0.83;;;;;;;12.48;86.49;101421.88;5033227;28;20183;-71
2022/10/06 06:58:29;;;;;;;3.27;1.97;;;;;;;12.49;85.99;101422.69;5033589;28;20176;-71
2022/10/06 07:01:12;;;;;;;1.73;1.63;;;;;;;12.51;86.75;101417.72;5014474;28;20187;-70
2022/10/06 07:03:39;;;;;;;8.60;1.60;;;;;;;12.51;86.49;101429.50;5013217;28;20542;-70
2022/10/06 07:06:08;;;;;;;12.07;1.50;;;;;;;12.51;87.06;101428.69;5003645;28;20234;-71
2022/10/06 07:08:36;;;;;;;8.13;1.33;;;;;;;12.53;87.00;101434.69;5013510;28;20173;-71
2022/10/06 07:11:17;;;;;;;0.90;0.50;;;;;;;12.55;87.24;101439.84;5013124;28;20291;-71
2022/10/06 07:13:43;;;;;;;7.60;1.77;;;;;;;12.53;86.99;101442.91;5013934;28;20184;-72
2022/10/06 07:27:21;;;;;;;1.63;0.97;;;;;;;12.64;88.12;101477.25;5032843;28;20194;-71
2022/10/06 07:29:46;;;;;;;1.50;1.07;;;;;;;12.67;87.34;101478.59;5032317;28;20612;-71
2022/10/06 07:32:12;;;;;;;7.47;1.97;;;;;;;12.66;87.83;101482.44;5032447;28;20733;-71
2022/10/06 07:34:40;;;;;;;6.43;1.53;;;;;;;12.69;87.25;101490.06;5032499;28;20167;-71
2022/10/06 07:37:05;;;;;;;8.40;2.20;;;;;;;12.72;87.72;101494.94;5032250;28;20536;-74
2022/10/06 07:39:31;;;;;;;14.03;1.17;;;;;;;12.76;86.54;101506.97;5032746;28;20176;-75
2022/10/06 07:41:57;;;;;;;5.10;1.30;;;;;;;12.78;86.00;101505.53;5032701;28;20179;-74
2022/10/06 07:44:22;;;;;;;8.03;1.80;;;;;;;12.82;85.85;101516.72;5033021;28;20195;-76
2022/10/06 07:46:47;;;;;;;3.73;1.07;;;;;;;12.86;86.25;101525.97;5032308;28;20180;-75
2022/10/06 07:49:16;;;;;;;2.93;1.60;;;;;;;12.84;85.32;101528.19;5032495;28;20248;-74
2022/10/06 07:51:41;;;;;;;5.70;0.83;;;;;;;12.90;85.08;101527.00;5032356;28;20207;-76
2022/10/06 07:54:07;;;;;;;2.47;1.27;;;;;;;12.96;84.71;101533.22;5023170;28;20651;-73
2022/10/06 07:56:33;;;;;;;1.77;1.33;;;;;;;13.04;84.82;101529.78;5020178;28;20188;-73
2022/10/06 07:58:58;;;;;;;1.40;0.70;;;;;;;13.06;84.60;101541.28;5023989;28;20177;-79
2022/10/06 08:01:25;;;;;;;0.93;0.60;;;;;;;13.09;84.15;101541.47;5022138;28;20175;-73
2022/10/06 08:03:51;;;;;;;10.80;1.93;;;;;;;13.09;84.26;101538.75;5022618;28;20216;-73
2022/10/06 08:06:18;;;;;;;3.00;0.93;;;;;;;13.12;84.33;101540.06;5025775;28;20227;-73
2022/10/06 08:08:44;;;;;;;13.70;2.10;;;;;;;13.10;83.56;101547.78;5007635;28;20202;-74
2022/10/06 08:11:11;;;;;;;6.07;1.60;;;;;;;13.06;83.34;101539.34;5014163;28;20257;-73
2022/10/06 08:13:42;;;;;;;11.40;2.07;;;;;;;13.08;83.73;101556.31;5031895;28;20214;-73
2022/10/06 08:16:13;;;;;;;3.73;1.73;;;;;;;13.12;83.38;101559.28;5031936;28;20160;-74
2022/10/06 08:18:41;;;;;;;2.07;1.80;;;;;;;13.11;83.12;101572.19;5031928;28;20180;-74
2022/10/06 08:21:15;;;;;;;4.97;0.87;;;;;;;13.11;83.07;101569.44;5031925;28;20178;-74
2022/10/06 08:23:42;;;;;;;0.93;0.60;;;;;;;13.18;84.25;101579.22;5031990;28;20175;-72
2022/10/06 08:26:09;;;;;;;2.47;0.60;;;;;;;13.15;82.51;101571.56;5031668;28;20172;-75
2022/10/06 08:28:35;;;;;;;1.67;1.43;;;;;;;13.21;83.16;101584.94;5013933;28;20541;-74
2022/10/06 08:31:10;;;;;;;4.90;1.53;;;;;;;13.29;82.70;101597.97;5031635;28;20202;-75
2022/10/06 08:33:37;;;;;;;5.73;0.77;;;;;;;13.31;82.25;101590.28;5031667;28;20693;-75
2022/10/06 08:36:04;;;;;;;13.80;1.50;;;;;;;13.34;82.70;101589.66;5030146;28;20363;-75
2022/10/06 08:38:30;;;;;;;21.03;1.60;;;;;;;13.30;82.35;101602.34;5031970;28;20176;-75
2022/10/06 08:40:56;;;;;;;3.07;1.27;;;;;;;13.35;81.82;101593.22;5031653;28;20179;-75
2022/10/06 08:43:23;;;;;;;2.13;0.60;;;;;;;13.41;81.93;101597.47;5031954;28;20199;-75
2022/10/06 08:45:54;;;;;;;7.83;1.70;;;;;;;13.57;82.34;101598.00;5032996;28;20570;-75
2022/10/06 08:48:27;;;;;;;1.27;0.93;;;;;;;13.60;80.50;101605.69;5031535;28;20383;-73
2022/10/06 08:51:06;;;;;;;1.10;0.23;;;;;;;13.54;79.88;101612.34;5031576;28;20574;-71
2022/10/06 08:54:10;;;;;;;12.60;2.00;;;;;;;13.62;80.14;101608.94;5031230;28;20233;-75
2022/10/06 08:56:47;;;;;;;2.13;1.97;;;;;;;13.70;80.07;101611.78;5026974;28;20188;-73
2022/10/06 08:59:15;;;;;;;4.63;0.73;;;;;;;13.70;79.74;101609.03;5031525;28;20179;-73
2022/10/06 09:01:46;;;;;;;0.73;0.73;;;;;;;13.72;79.29;101608.72;5013575;28;20644;-73
2022/10/06 09:04:25;;;;;;;4.17;0.97;;;;;;;13.77;79.05;101603.13;5031166;28;20187;-72
2022/10/06 09:06:50;;;;;;;5.83;2.47;;;;;;;13.79;78.87;101608.31;5030942;28;20678;-73
2022/10/06 09:09:26;;;;;;;3.07;0.70;;;;;;;13.92;79.17;101613.00;5031082;28;20203;-72
2022/10/06 09:11:56;;;;;;;2.47;1.07;;;;;;;13.97;78.09;101612.91;5013337;28;20237;-73
2022/10/06 09:14:36;;;;;;;2.57;1.70;;;;;;;14.11;78.43;101612.91;5013180;28;20554;-72
2022/10/06 09:17:07;;;;;;;6.87;1.53;;;;;;;14.11;77.82;101619.22;5030775;28;20196;-73
2022/10/06 09:19:41;;;;;;;1.60;0.63;;;;;;;14.12;77.76;101620.84;5031135;28;20706;-73
2022/10/06 09:22:15;;;;;;;1.90;0.73;;;;;;;14.06;76.18;101632.25;5030896;28;20211;-73
2022/10/06 09:24:41;;;;;;;0.87;0.70;;;;;;;14.08;76.48;101635.50;5030989;28;20183;-76
2022/10/06 09:27:20;;;;;;;3.80;1.23;;;;;;;14.24;77.41;101634.88;5030639;28;20167;-76
2022/10/06 09:29:47;;;;;;;5.20;1.30;;;;;;;14.19;76.51;101642.44;5031123;28;20181;-76
2022/10/06 09:32:13;;;;;;;15.87;1.00;;;;;;;14.33;76.32;101639.69;5030677;28;20200;-74
2022/10/06 09:34:47;;;;;;;2.47;0.60;;;;;;;14.46;75.49;101647.09;5013167;28;20172;-73
2022/10/06 09:37:13;;;;;;;1.30;1.03;;;;;;;14.41;75.38;101647.19;5030853;28;20179;-73
2022/10/06 09:39:41;;;;;;;1.43;1.10;;;;;;;14.46;75.66;101650.66;5030729;28;20632;-73
2022/10/06 09:42:18;;;;;;;4.80;0.83;;;;;;;14.58;74.97;101652.88;5030839;28;20230;-73
2022/10/06 09:44:49;;;;;;;3.20;0.87;;;;;;;14.71;74.30;101649.28;5030674;28;20176;-73
2022/10/06 09:47:38;;;;;;;2.30;1.30;;;;;;;14.82;73.77;101658.94;5030570;28;20258;-73
2022/10/06 09:50:23;;;;;;;0.93;0.80;;;;;;;14.82;72.83;101666.38;5030775;28;20204;-73
2022/10/06 09:53:02;;;;;;;6.63;0.73;;;;;;;14.67;71.24;101664.78;5030592;28;20208;-73
2022/10/06 09:55:50;;;;;;;2.50;0.90;;;;;;;14.66;71.42;101667.84;5033076;28;20183;-73
2022/10/06 09:58:36;;;;;;;0.47;0.43;;;;;;;14.86;71.82;101670.94;5017147;28;20187;-74
2022/10/06 10:01:06;;;;;;;1.00;0.93;;;;;;;15.04;71.74;101669.16;5023145;28;20238;-73
2022/10/06 10:03:50;;;;;;;1.43;1.33;;;;;;;15.02;69.57;101663.16;5014942;28;20187;-73
2022/10/06 10:06:27;;;;;;;2.70;1.43;;;;;;;14.90;68.89;101668.41;5012710;28;20184;-73
2022/10/06 10:09:18;;;;;;;5.07;1.37;;;;;;;14.76;68.54;101673.97;5009543;28;20212;-73
2022/10/06 10:14:37;;;;;;;7.77;1.37;;;;;;;14.92;66.97;101676.34;5015086;28;20175;-73
2022/10/06 10:17:13;;;;;;;2.17;0.50;;;;;;;14.92;66.61;101673.59;5014393;28;20660;-72
2022/10/06 10:19:42;;;;;;;1.13;0.83;;;;;;;15.02;65.77;101679.66;4997062;28;20196;-73
2022/10/06 10:22:26;;;;;;;19.13;0.93;;;;;;;15.00;65.35;101690.19;5014585;28;20175;-72
2022/10/06 10:25:06;;;;;;;1.33;0.60;;;;;;;15.12;65.95;101690.44;5014849;28;20193;-71
2022/10/06 10:27:58;;;;;;;6.97;0.90;;;;;;;15.16;66.82;101685.94;5013643;28;20841;-72
2022/10/06 10:30:23;;;;;;;0.63;0.43;;;;;;;15.30;65.36;101704.34;5003087;28;20211;-72
2022/10/06 10:33:10;;;;;;;0.07;0.07;;;;;;;15.28;65.77;101699.16;4996714;28;20582;-72
2022/10/06 10:35:40;;;;;;;4.50;0.23;;;;;;;15.30;65.12;101691.38;5026145;28;20183;-72
2022/10/06 10:38:17;;;;;;;5.37;0.73;;;;;;;15.22;64.18;101692.16;5033607;28;20184;-73
2022/10/06 10:40:50;;;;;;;0.77;0.40;;;;;;;15.33;65.30;101693.50;5033972;28;20643;-73
2022/10/06 10:43:32;;;;;;;1.30;0.70;;;;;;;15.27;63.75;101694.78;5034073;28;20176;-73
2022/10/06 10:46:07;;;;;;;1.80;0.83;;;;;;;15.35;64.25;101702.31;5019856;28;20184;-73
2022/10/06 10:48:44;;;;;;;3.03;0.83;;;;;;;15.38;64.20;101707.19;5013802;28;20187;-74
2022/10/06 10:51:21;;;;;;;9.40;0.70;;;;;;;15.35;63.35;101699.56;5013913;28;20213;-73
2022/10/06 10:54:18;;;;;;;1.40;0.33;;;;;;;15.54;63.61;101696.59;5029712;28;20234;-73
2022/10/06 10:56:47;;;;;;;5.00;0.90;;;;;;;15.62;61.91;101703.31;5029158;28;20188;-73
2022/10/06 10:59:26;;;;;;;1.80;0.33;;;;;;;15.71;60.84;101702.22;5033558;28;20670;-74
2022/10/06 11:02:09;;;;;;;0.60;0.60;;;;;;;15.65;60.78;101706.25;5033822;28;20187;-73
2022/10/06 11:04:42;;;;;;;0.30;0.30;;;;;;;15.79;61.85;101697.91;5033164;28;20194;-72
2022/10/06 11:07:13;;;;;;;1.93;0.80;;;;;;;15.85;60.76;101701.34;5014602;28;20172;-75
2022/10/06 11:09:49;;;;;;;1.13;1.10;;;;;;;15.69;61.10;101706.44;5020814;28;20207;-75
2022/10/06 11:12:33;;;;;;;5.73;0.50;;;;;;;15.67;61.58;101694.94;5014843;28;20818;-75
2022/10/06 11:15:08;;;;;;;0.40;0.40;;;;;;;15.52;60.58;101706.31;5008035;28;20658;-75
2022/10/06 11:17:43;;;;;;;0.70;0.70;;;;;;;15.55;61.59;101695.47;5013109;28;20211;-75
2022/10/06 11:20:14;;;;;;;1.63;1.50;;;;;;;15.57;61.33;101715.25;5013475;28;20192;-73
2022/10/06 11:23:07;;;;;;;4.50;1.60;;;;;;;15.53;61.04;101699.66;5013852;28;20222;-73
2022/10/06 11:25:38;;;;;;;0.40;0.40;;;;;;;15.77;61.53;101702.94;5013057;28;20176;-73
2022/10/06 11:28:13;;;;;;;0.73;0.57;;;;;;;15.89;60.39;101702.31;5013233;28;20180;-74
2022/10/06 11:30:52;;;;;;;20.73;0.57;;;;;;;15.92;61.40;101710.81;5013235;28;20200;-72
2022/10/06 11:33:39;;;;;;;1.13;0.53;;;;;;;15.87;60.46;101702.66;5013237;28;20279;-74
2022/10/06 11:36:12;;;;;;;5.10;0.27;;;;;;;15.91;61.50;101713.84;5012835;28;20207;-72
2022/10/06 11:38:48;;;;;;;5.50;0.20;;;;;;;16.02;61.61;101720.72;5012943;28;20597;-73
2022/10/06 11:41:24;;;;;;;1.27;0.47;;;;;;;16.14;59.98;101712.66;5012617;28;20523;-73
2022/10/06 11:44:05;;;;;;;0.70;0.23;;;;;;;16.22;59.40;101706.41;5000403;28;20184;-73
2022/10/06 11:46:42;;;;;;;1.53;0.83;;;;;;;16.17;58.21;101720.31;5012538;28;20176;-73
2022/10/06 11:49:30;;;;;;;0.60;0.60;;;;;;;16.01;58.85;101719.91;5012784;28;20188;-72
2022/10/06 11:52:22;;;;;;;2.73;0.70;;;;;;;16.06;59.62;101713.47;5012949;28;20601;-73